createdAt,value
2023-04-26T00:01:11.199Z,6.00
2023-04-26T00:03:38.078Z,6.00
2023-04-26T00:06:08.800Z,5.50
2023-04-26T00:08:35.372Z,5.00
2023-04-26T00:11:01.904Z,6.25
2023-04-26T00:13:28.302Z,3.25
2023-04-26T00:15:54.675Z,4.75
2023-04-26T00:18:21.259Z,0.25
2023-04-26T00:20:47.612Z,7.00
2023-04-26T00:23:13.994Z,6.00
2023-04-26T00:25:40.469Z,6.00
2023-04-26T00:28:06.889Z,5.25
2023-04-26T00:30:36.282Z,6.50
2023-04-26T00:33:02.749Z,6.00
2023-04-26T00:35:29.287Z,6.00
2023-04-26T00:37:55.922Z,6.50
2023-04-26T00:40:22.266Z,6.00
2023-04-26T00:42:48.654Z,6.50
2023-04-26T00:45:15.073Z,6.75
2023-04-26T00:47:41.543Z,6.75
2023-04-26T00:50:11.129Z,3.00
2023-04-26T00:52:37.642Z,7.00
2023-04-26T00:55:04.134Z,13.00
2023-04-26T00:57:30.662Z,7.00
2023-04-26T00:59:57.035Z,6.00
2023-04-26T01:02:23.748Z,7.00
2023-04-26T01:04:50.598Z,6.25
2023-04-26T01:07:17.198Z,6.00
2023-04-26T01:09:44.211Z,6.25
2023-04-26T01:12:11.484Z,8.50
2023-04-26T01:14:39.394Z,9.75
2023-04-26T01:17:06.284Z,8.67
2023-04-26T01:19:32.790Z,9.67
2023-04-26T01:21:59.134Z,9.25
2023-04-26T01:24:49.832Z,7.00
2023-04-26T01:27:16.958Z,9.33
2023-04-26T01:29:43.360Z,8.25
2023-04-26T01:32:09.761Z,9.00
2023-04-26T01:34:37.808Z,9.00
2023-04-26T01:37:04.206Z,9.00
2023-04-26T01:39:31.132Z,6.00
2023-04-26T01:41:58.711Z,6.00
2023-04-26T01:44:26.294Z,6.33
2023-04-26T01:46:52.716Z,9.00
2023-04-26T01:49:19.179Z,9.00
2023-04-26T01:51:45.787Z,9.00
2023-04-26T01:54:12.216Z,7.00
2023-04-26T01:56:38.600Z,7.00
2023-04-26T01:59:04.986Z,10.00
2023-04-26T02:01:31.566Z,8.33
2023-04-26T02:03:58.044Z,10.00
2023-04-26T02:06:26.963Z,10.33
2023-04-26T02:08:54.074Z,9.67
2023-04-26T02:11:21.256Z,10.67
2023-04-26T02:13:47.849Z,12.33
2023-04-26T02:16:16.634Z,6.00
2023-04-26T02:18:43.055Z,10.33
2023-04-26T02:21:10.932Z,10.67
2023-04-26T02:23:37.536Z,13.00
2023-04-26T02:26:04.657Z,11.33
2023-04-26T02:28:31.534Z,14.00
2023-04-26T02:30:58.539Z,13.00
2023-04-26T02:33:25.006Z,18.50
2023-04-26T02:35:51.385Z,14.25
2023-04-26T02:38:20.434Z,14.00
2023-04-26T02:40:47.543Z,13.67
2023-04-26T02:43:14.083Z,10.33
2023-04-26T02:45:43.729Z,11.67
2023-04-26T02:48:10.276Z,12.25
2023-04-26T02:50:39.274Z,15.00
2023-04-26T02:53:05.703Z,12.00
2023-04-26T02:55:35.277Z,13.00
2023-04-26T02:58:11.847Z,10.67
2023-04-26T03:01:08.666Z,16.00
2023-04-26T03:10:07.223Z,19.75
2023-04-26T03:39:08.353Z,14.25
2023-04-26T03:41:42.540Z,15.50
2023-04-26T03:47:47.590Z,14.25
2023-04-26T03:50:15.420Z,10.00
2023-04-26T03:52:41.800Z,12.50
2023-04-26T03:55:10.316Z,13.25
2023-04-26T03:57:39.653Z,13.00
2023-04-26T04:00:15.672Z,13.75
2023-04-26T04:02:43.723Z,16.00
2023-04-26T04:05:13.358Z,15.25
2023-04-26T04:07:41.263Z,14.00
2023-04-26T04:10:08.123Z,14.75
2023-04-26T04:12:34.640Z,12.67
2023-04-26T04:15:01.031Z,13.67
2023-04-26T04:17:27.472Z,13.33
2023-04-26T04:19:54.668Z,15.50
2023-04-26T04:22:28.955Z,16.25
2023-04-26T04:24:55.467Z,19.67
2023-04-26T04:27:24.019Z,20.50
2023-04-26T04:29:53.849Z,20.00
2023-04-26T04:32:28.032Z,19.50
2023-04-26T04:34:57.050Z,22.00
2023-04-26T04:37:25.705Z,22.25
2023-04-26T04:39:52.365Z,24.75
2023-04-26T04:42:19.479Z,22.50
2023-04-26T04:45:07.436Z,21.25
2023-04-26T04:47:38.387Z,13.67
2023-04-26T04:50:06.122Z,13.33
2023-04-26T04:52:33.384Z,11.33
2023-04-26T04:55:00.193Z,16.00
2023-04-26T04:57:26.920Z,16.00
2023-04-26T04:59:53.452Z,14.00
2023-04-26T05:02:20.026Z,12.00
2023-04-26T05:04:46.629Z,11.33
2023-04-26T05:07:15.571Z,7.25
2023-04-26T05:09:42.486Z,9.00
2023-04-26T05:12:08.981Z,8.75
2023-04-26T05:14:35.334Z,8.00
2023-04-26T05:17:01.840Z,9.50
2023-04-26T05:19:28.274Z,8.50
2023-04-26T05:21:54.750Z,3.50
2023-04-26T05:24:21.357Z,10.00
2023-04-26T05:26:47.728Z,8.00
2023-04-26T05:29:14.158Z,5.25
2023-04-26T05:31:40.782Z,6.25
2023-04-26T05:34:07.206Z,6.50
2023-04-26T05:36:33.810Z,8.75
2023-04-26T05:39:00.212Z,8.00
2023-04-26T05:41:26.722Z,8.75
2023-04-26T05:43:53.345Z,8.00
2023-04-26T05:46:23.004Z,6.75
2023-04-26T05:48:49.722Z,5.25
2023-04-26T05:51:16.104Z,7.50
2023-04-26T05:53:42.650Z,6.00
2023-04-26T05:56:09.269Z,6.00
2023-04-26T05:58:35.734Z,5.50
2023-04-26T06:01:02.183Z,4.75
2023-04-26T06:03:28.910Z,4.00
2023-04-26T06:05:55.624Z,2.75
2023-04-26T06:08:22.096Z,7.75
2023-04-26T06:10:48.745Z,5.75
2023-04-26T06:13:15.220Z,5.00
2023-04-26T06:15:41.750Z,7.00
2023-04-26T06:18:11.399Z,8.00
2023-04-26T06:20:37.787Z,8.00
2023-04-26T06:23:04.727Z,8.75
2023-04-26T06:25:31.129Z,7.00
2023-04-26T06:27:58.727Z,5.00
2023-04-26T06:30:25.187Z,3.00
2023-04-26T06:32:51.826Z,3.75
2023-04-26T06:35:18.290Z,4.25
2023-04-26T06:37:44.688Z,4.00
2023-04-26T06:40:13.786Z,3.00
2023-04-26T06:42:40.444Z,4.00
2023-04-26T06:45:07.240Z,3.00
2023-04-26T06:47:33.849Z,4.33
2023-04-26T06:50:00.704Z,3.25
2023-04-26T06:52:27.170Z,2.00
2023-04-26T06:54:57.180Z,2.00
2023-04-26T06:57:24.152Z,3.00
2023-04-26T06:59:51.405Z,3.00
2023-04-26T07:02:18.133Z,3.50
2023-04-26T07:04:44.928Z,3.00
2023-04-26T07:07:13.656Z,2.75
2023-04-26T07:09:41.130Z,3.00
2023-04-26T07:12:07.810Z,3.75
2023-04-26T07:14:37.162Z,4.00
2023-04-26T07:17:05.020Z,2.50
2023-04-26T07:19:31.442Z,2.00
2023-04-26T07:21:57.939Z,2.25
2023-04-26T07:24:24.296Z,4.00
2023-04-26T07:26:50.740Z,2.25
2023-04-26T07:29:18.884Z,2.00
2023-04-26T07:31:45.824Z,4.00
2023-04-26T07:34:12.246Z,2.75
2023-04-26T07:36:38.654Z,4.00
2023-04-26T07:39:09.691Z,3.75
2023-04-26T07:41:36.188Z,3.75
2023-04-26T07:44:02.783Z,3.00
2023-04-26T07:46:29.161Z,3.00
2023-04-26T07:48:55.750Z,3.00
2023-04-26T07:51:22.202Z,3.00
2023-04-26T07:53:49.334Z,4.00
2023-04-26T07:56:15.781Z,2.00
2023-04-26T07:58:42.222Z,2.00
2023-04-26T08:01:09.757Z,4.00
2023-04-26T08:03:36.530Z,4.00
2023-04-26T08:06:03.634Z,9.75
2023-04-26T08:08:30.382Z,4.00
2023-04-26T08:10:56.872Z,5.00
2023-04-26T08:13:23.302Z,5.00
2023-04-26T08:15:49.752Z,8.25
2023-04-26T08:18:16.270Z,4.75
2023-04-26T08:20:42.858Z,3.25
2023-04-26T08:23:09.369Z,3.50
2023-04-26T08:25:35.971Z,4.00
2023-04-26T08:28:02.597Z,4.00
2023-04-26T08:30:29.626Z,5.00
2023-04-26T08:32:56.664Z,3.75
2023-04-26T08:35:23.373Z,6.00
2023-04-26T08:37:49.866Z,5.50
2023-04-26T08:40:22.211Z,3.00
2023-04-26T08:42:48.686Z,4.00
2023-04-26T08:45:16.094Z,4.00
2023-04-26T08:47:48.205Z,3.75
2023-04-26T08:50:15.133Z,3.75
2023-04-26T08:52:42.434Z,3.50
2023-04-26T08:55:19.928Z,4.50
2023-04-26T08:57:47.519Z,4.25
2023-04-26T09:00:15.842Z,4.50
2023-04-26T09:02:52.929Z,5.00
2023-04-26T09:05:24.238Z,4.25
2023-04-26T09:07:51.320Z,5.25
2023-04-26T09:10:22.018Z,4.75
2023-04-26T09:12:55.638Z,6.25
2023-04-26T09:15:23.213Z,4.25
2023-04-26T09:17:52.838Z,4.00
2023-04-26T09:20:23.996Z,3.00
2023-04-26T09:22:52.436Z,4.00
2023-04-26T09:25:20.018Z,4.50
2023-04-26T09:27:46.715Z,4.25
2023-04-26T09:30:20.852Z,3.75
2023-04-26T09:32:47.450Z,4.00
2023-04-26T09:35:23.238Z,4.00
2023-04-26T09:37:58.735Z,5.50
2023-04-26T09:40:27.778Z,3.75
2023-04-26T09:42:58.191Z,3.00
2023-04-26T09:45:25.170Z,3.00
2023-04-26T09:47:51.778Z,4.00
2023-04-26T09:50:30.938Z,4.00
2023-04-26T09:52:57.800Z,2.25
2023-04-26T09:55:35.243Z,4.00
2023-04-26T09:58:09.118Z,2.00
2023-04-26T10:00:37.666Z,2.75
2023-04-26T10:03:04.299Z,2.75
2023-04-26T10:05:33.981Z,5.00
2023-04-26T10:08:00.632Z,4.00
2023-04-26T10:10:27.444Z,3.00
2023-04-26T10:12:53.917Z,3.00
2023-04-26T10:15:20.697Z,4.00
2023-04-26T10:17:47.098Z,4.75
2023-04-26T10:20:14.337Z,3.75
2023-04-26T10:22:44.942Z,3.25
2023-04-26T10:25:11.702Z,3.75
2023-04-26T10:27:44.173Z,34.75
2023-04-26T10:30:12.249Z,16.50
2023-04-26T10:32:57.183Z,50.50
2023-04-26T10:35:27.722Z,70.67
2023-04-26T10:38:00.189Z,23.75
2023-04-26T10:40:39.565Z,38.00
2023-04-26T10:43:08.842Z,24.25
2023-04-26T10:45:36.278Z,4.75
2023-04-26T10:48:21.236Z,6.25
2023-04-26T10:51:04.969Z,15.00
2023-04-26T10:53:32.461Z,10.25
2023-04-26T10:55:58.856Z,3.00
2023-04-26T10:58:28.928Z,6.00
2023-04-26T11:01:05.362Z,4.00
2023-04-26T11:03:32.077Z,4.00
2023-04-26T11:05:58.737Z,4.00
2023-04-26T11:08:30.105Z,2.00
2023-04-26T11:11:07.042Z,5.00
2023-04-26T11:13:35.354Z,22.67
2023-04-26T11:16:05.940Z,8.75
2023-04-26T11:18:33.007Z,9.50
2023-04-26T11:20:59.545Z,3.00
2023-04-26T11:23:27.466Z,4.00
2023-04-26T11:25:55.135Z,3.25
2023-04-26T11:28:23.367Z,3.50
2023-04-26T11:30:50.600Z,3.00
2023-04-26T11:33:18.956Z,4.00
2023-04-26T11:35:49.319Z,3.00
2023-04-26T11:38:15.879Z,3.50
2023-04-26T11:40:42.952Z,3.00
2023-04-26T11:43:09.752Z,3.00
2023-04-26T11:45:37.360Z,2.50
2023-04-26T11:48:04.808Z,1.75
2023-04-26T11:50:37.445Z,2.25
2023-04-26T11:53:04.732Z,2.00
2023-04-26T11:55:33.297Z,1.00
2023-04-26T11:58:00.064Z,3.25
2023-04-26T12:00:26.609Z,2.00
2023-04-26T12:02:53.565Z,2.00
2023-04-26T12:05:24.103Z,3.25
2023-04-26T12:07:52.676Z,3.00
2023-04-26T12:10:20.511Z,2.00
2023-04-26T12:12:54.661Z,2.25
2023-04-26T12:15:25.090Z,2.00
2023-04-26T12:17:52.270Z,2.50
2023-04-26T12:20:19.148Z,2.00
2023-04-26T12:23:04.561Z,3.00
2023-04-26T12:25:31.699Z,3.00
2023-04-26T12:27:58.516Z,2.00
2023-04-26T12:30:25.839Z,2.00
2023-04-26T12:32:52.287Z,2.00
2023-04-26T12:35:18.820Z,1.00
2023-04-26T12:37:45.315Z,2.00
2023-04-26T12:40:12.376Z,3.00
2023-04-26T12:42:38.846Z,2.25
2023-04-26T12:45:05.865Z,1.00
2023-04-26T12:47:32.287Z,2.00
2023-04-26T12:50:01.146Z,2.50
2023-04-26T12:52:28.192Z,1.50
2023-04-26T12:54:54.567Z,3.00
2023-04-26T12:57:21.855Z,3.00
2023-04-26T12:59:48.323Z,1.00
2023-04-26T13:02:14.852Z,2.00
2023-04-26T13:04:41.991Z,2.00
2023-04-26T13:07:08.775Z,1.00
2023-04-26T13:09:35.255Z,0.75
2023-04-26T13:12:01.720Z,2.75
2023-04-26T13:14:28.227Z,2.00
2023-04-26T13:16:54.765Z,1.00
2023-04-26T13:19:21.207Z,3.00
2023-04-26T13:21:47.769Z,1.00
2023-04-26T13:24:14.331Z,3.00
2023-04-26T13:26:40.753Z,2.00
2023-04-26T13:29:07.256Z,4.75
2023-04-26T13:31:33.916Z,6.00
2023-04-26T13:34:01.561Z,1.25
2023-04-26T13:36:28.040Z,3.00
2023-04-26T13:38:54.543Z,3.00
2023-04-26T13:41:22.476Z,3.00
2023-04-26T13:43:48.871Z,1.00
2023-04-26T13:46:15.409Z,2.00
2023-04-26T13:48:42.075Z,2.00
2023-04-26T13:51:08.446Z,2.00
2023-04-26T13:53:37.571Z,3.00
2023-04-26T13:56:04.046Z,2.00
2023-04-26T13:58:30.755Z,2.00
2023-04-26T14:00:57.173Z,4.00
2023-04-26T14:03:23.733Z,2.00
2023-04-26T14:05:50.418Z,2.00
2023-04-26T14:08:17.254Z,1.00
2023-04-26T14:10:45.540Z,3.75
2023-04-26T14:13:12.060Z,4.00
2023-04-26T14:15:38.573Z,2.00
2023-04-26T14:18:05.062Z,1.00
2023-04-26T14:20:31.521Z,9.50
2023-04-26T14:22:57.921Z,4.00
2023-04-26T14:25:24.370Z,3.50
2023-04-26T14:27:53.035Z,1.00
2023-04-26T14:30:20.347Z,1.50
2023-04-26T14:32:46.925Z,8.25
2023-04-26T14:35:13.437Z,8.75
2023-04-26T14:37:39.863Z,11.00
2023-04-26T14:40:08.103Z,4.25
2023-04-26T14:42:34.566Z,9.00
2023-04-26T14:45:01.229Z,5.25
2023-04-26T14:47:27.749Z,6.00
2023-04-26T14:49:54.240Z,5.50
2023-04-26T14:52:21.115Z,3.75
2023-04-26T14:54:47.536Z,1.00
2023-04-26T14:57:13.975Z,6.25
2023-04-26T14:59:40.381Z,4.50
2023-04-26T15:02:08.382Z,3.00
2023-04-26T15:04:36.967Z,2.00
2023-04-26T15:07:04.420Z,2.00
2023-04-26T15:09:30.934Z,3.00
2023-04-26T15:11:57.388Z,3.00
2023-04-26T15:14:23.912Z,3.00
2023-04-26T15:16:50.490Z,2.00
2023-04-26T15:19:17.567Z,3.00
2023-04-26T15:21:44.252Z,1.25
2023-04-26T15:24:10.852Z,2.00
2023-04-26T15:26:37.718Z,1.75
2023-04-26T15:29:04.111Z,3.75
2023-04-26T15:31:30.844Z,4.75
2023-04-26T15:33:59.077Z,5.75
2023-04-26T15:36:25.516Z,5.00
2023-04-26T15:38:52.026Z,8.25
2023-04-26T15:41:18.444Z,7.00
2023-04-26T15:43:44.906Z,7.50
2023-04-26T15:46:15.971Z,6.75
2023-04-26T15:48:42.811Z,5.50
2023-04-26T15:51:09.187Z,5.00
2023-04-26T15:53:43.342Z,24.67
2023-04-26T15:56:13.650Z,14.50
2023-04-26T15:58:43.848Z,14.50
2023-04-26T16:01:14.676Z,18.00
2023-04-26T16:03:43.360Z,5.00
2023-04-26T16:06:18.041Z,10.75
2023-04-26T16:08:44.952Z,11.00
2023-04-26T16:11:14.240Z,4.00
2023-04-26T16:13:41.224Z,4.50
2023-04-26T16:16:10.837Z,12.75
2023-04-26T16:18:43.887Z,10.25
2023-04-26T16:21:12.231Z,9.00
2023-04-26T16:23:42.163Z,9.75
2023-04-26T16:26:10.742Z,11.50
2023-04-26T16:28:37.375Z,8.50
2023-04-26T16:31:03.915Z,5.00
2023-04-26T16:33:36.441Z,3.00
2023-04-26T16:36:02.966Z,3.00
2023-04-26T16:38:32.081Z,3.00
2023-04-26T16:40:59.432Z,2.25
2023-04-26T16:43:27.041Z,9.50
2023-04-26T16:46:03.618Z,10.00
2023-04-26T16:48:39.425Z,24.33
2023-04-26T16:51:07.717Z,12.25
2023-04-26T16:53:35.193Z,9.25
2023-04-26T16:56:04.444Z,11.75
2023-04-26T16:58:32.147Z,17.75
2023-04-26T17:01:04.843Z,16.33
2023-04-26T17:03:31.764Z,17.25
2023-04-26T17:06:01.649Z,15.25
2023-04-26T17:08:31.337Z,12.00
2023-04-26T17:10:57.905Z,15.50
2023-04-26T17:13:29.319Z,13.50
2023-04-26T17:15:55.852Z,11.50
2023-04-26T17:18:22.323Z,11.00
2023-04-26T17:20:52.875Z,10.00
2023-04-26T17:23:21.841Z,11.50
2023-04-26T17:25:48.348Z,15.00
2023-04-26T17:28:14.747Z,10.50
2023-04-26T17:30:41.311Z,9.75
2023-04-26T17:33:07.863Z,10.25
2023-04-26T17:35:36.526Z,16.00
2023-04-26T17:38:03.206Z,20.00
2023-04-26T17:40:29.690Z,30.00
2023-04-26T17:42:56.201Z,32.25
2023-04-26T17:45:22.676Z,33.00
2023-04-26T17:47:49.169Z,38.50
2023-04-26T17:50:16.032Z,33.50
2023-04-26T17:52:43.658Z,33.00
2023-04-26T17:55:10.261Z,22.67
2023-04-26T17:57:36.904Z,17.00
2023-04-26T18:00:04.042Z,16.67
2023-04-26T18:02:35.492Z,11.00
2023-04-26T18:05:04.137Z,25.25
2023-04-26T18:07:30.785Z,26.75
2023-04-26T18:09:57.229Z,28.25
2023-04-26T18:12:23.704Z,34.00
2023-04-26T18:14:50.193Z,44.75
2023-04-26T18:17:16.800Z,41.75
2023-04-26T18:19:43.349Z,34.00
2023-04-26T18:22:09.956Z,30.00
2023-04-26T18:24:39.318Z,34.00
2023-04-26T18:27:06.382Z,21.75
2023-04-26T18:29:32.889Z,33.50
2023-04-26T18:31:59.253Z,31.25
2023-04-26T18:34:25.744Z,32.75
2023-04-26T18:36:55.259Z,26.25
2023-04-26T18:39:29.345Z,32.00
2023-04-26T18:41:57.984Z,33.00
2023-04-26T18:44:24.366Z,32.00
2023-04-26T18:46:55.080Z,28.25
2023-04-26T18:49:24.765Z,31.25
2023-04-26T18:51:51.217Z,30.25
2023-04-26T18:54:17.714Z,29.50
2023-04-26T18:56:45.888Z,28.50
2023-04-26T18:59:13.046Z,17.75
2023-04-26T19:01:39.532Z,29.00
2023-04-26T19:04:06.243Z,30.75
2023-04-26T19:06:33.163Z,32.50
2023-04-26T19:08:59.550Z,31.25
2023-04-26T19:11:26.033Z,28.25
2023-04-26T19:13:52.494Z,28.50
2023-04-26T19:16:19.011Z,29.00
2023-04-26T19:18:47.342Z,26.00
2023-04-26T19:21:13.736Z,27.00
2023-04-26T19:23:40.115Z,29.00
2023-04-26T19:26:08.100Z,28.25
2023-04-26T19:28:34.764Z,22.25
2023-04-26T19:31:01.579Z,21.00
2023-04-26T19:33:28.088Z,19.25
2023-04-26T19:35:56.337Z,20.00
2023-04-26T19:38:23.665Z,20.75
2023-04-26T19:40:50.800Z,17.75
2023-04-26T19:43:17.405Z,19.75
2023-04-26T19:45:46.818Z,20.00
2023-04-26T19:48:13.562Z,18.25
2023-04-26T19:50:40.998Z,18.00
2023-04-26T19:53:08.207Z,17.00
2023-04-26T19:55:34.757Z,15.00
2023-04-26T19:58:01.331Z,21.25
2023-04-26T20:00:30.616Z,19.25
2023-04-26T20:02:58.326Z,20.00
2023-04-26T20:05:26.361Z,20.25
2023-04-26T20:07:57.500Z,25.50
2023-04-26T20:10:24.068Z,15.00
2023-04-26T20:12:50.586Z,20.25
2023-04-26T20:15:17.793Z,24.00
2023-04-26T20:17:44.833Z,19.50
2023-04-26T20:20:12.098Z,19.25
2023-04-26T20:22:39.352Z,19.50
2023-04-26T20:25:06.496Z,18.25
2023-04-26T20:27:32.979Z,16.25
2023-04-26T20:29:59.492Z,21.00
2023-04-26T20:32:26.025Z,19.00
2023-04-26T20:34:52.634Z,21.75
2023-04-26T20:37:19.149Z,21.50
2023-04-26T20:39:48.028Z,22.50
2023-04-26T20:42:14.422Z,18.50
2023-04-26T20:44:40.991Z,21.75
2023-04-26T20:47:08.058Z,21.50
2023-04-26T20:49:34.465Z,16.25
2023-04-26T20:52:01.061Z,19.00
2023-04-26T20:54:29.754Z,20.50
2023-04-26T20:56:56.181Z,21.00
2023-04-26T20:59:24.967Z,21.25
2023-04-26T21:01:52.547Z,22.25
2023-04-26T21:04:19.311Z,17.75
2023-04-26T21:06:48.428Z,17.50
2023-04-26T21:09:14.875Z,18.00
2023-04-26T21:11:41.563Z,16.50
2023-04-26T21:14:09.627Z,14.00
2023-04-26T21:16:36.059Z,16.25
2023-04-26T21:19:02.625Z,18.00
2023-04-26T21:21:29.004Z,21.50
2023-04-26T21:23:55.621Z,13.00
2023-04-26T21:26:22.048Z,17.00
2023-04-26T21:28:50.976Z,19.50
2023-04-26T21:31:17.481Z,20.50
2023-04-26T21:33:43.891Z,18.00
2023-04-26T21:36:10.398Z,16.00
2023-04-26T21:38:36.824Z,17.50
2023-04-26T21:41:05.547Z,20.75
2023-04-26T21:43:31.985Z,22.00
2023-04-26T21:45:58.707Z,15.50
2023-04-26T21:48:26.280Z,17.50
2023-04-26T21:50:53.299Z,17.50
2023-04-26T21:53:19.756Z,17.00
2023-04-26T21:55:52.763Z,13.50
2023-04-26T21:58:25.097Z,15.00
2023-04-26T22:00:54.212Z,12.00
2023-04-26T22:03:21.862Z,12.75
2023-04-26T22:05:48.632Z,12.00
2023-04-26T22:08:15.081Z,13.25
2023-04-26T22:10:41.935Z,14.75
2023-04-26T22:13:08.418Z,12.50
2023-04-26T22:15:34.922Z,17.25
2023-04-26T22:18:01.685Z,15.25
2023-04-26T22:20:33.231Z,18.00
2023-04-26T22:22:59.657Z,14.25
2023-04-26T22:25:26.749Z,16.00
2023-04-26T22:27:53.663Z,14.25
2023-04-26T22:30:24.880Z,13.00
2023-04-26T22:35:47.195Z,16.25
2023-04-26T22:38:13.667Z,12.00
2023-04-26T22:40:42.474Z,13.25
2023-04-26T22:43:08.864Z,15.25
2023-04-26T22:45:35.336Z,19.25
2023-04-26T22:48:01.849Z,17.25
2023-04-26T22:50:28.351Z,13.75
2023-04-26T22:52:54.778Z,14.75
2023-04-26T22:55:21.337Z,17.25
2023-04-26T22:57:47.825Z,18.00
2023-04-26T23:00:14.765Z,12.50
2023-04-26T23:02:41.325Z,15.75
2023-04-26T23:05:13.342Z,12.00
2023-04-26T23:07:39.987Z,12.00
2023-04-26T23:10:09.450Z,15.25
2023-04-26T23:12:38.886Z,11.75
2023-04-26T23:15:06.244Z,13.25
2023-04-26T23:17:34.546Z,13.50
2023-04-26T23:20:03.514Z,9.00
2023-04-26T23:22:29.905Z,14.25
2023-04-26T23:24:56.396Z,14.00
2023-04-26T23:27:24.949Z,15.25
2023-04-26T23:29:51.786Z,12.75
2023-04-26T23:32:18.263Z,11.75
2023-04-26T23:34:44.672Z,10.67
2023-04-26T23:37:11.361Z,12.50
2023-04-26T23:39:37.716Z,11.67
2023-04-26T23:42:04.274Z,11.25
2023-04-26T23:44:30.723Z,10.25
2023-04-26T23:46:57.143Z,11.50
2023-04-26T23:49:24.428Z,12.00
2023-04-26T23:51:50.807Z,12.50
2023-04-26T23:54:17.199Z,13.00
2023-04-26T23:56:45.982Z,10.75
2023-04-26T23:59:14.322Z,8.00
